sensor_id;sensor_type;location;lat;lon;timestamp;P1;durP1;ratioP1;P2;durP2;ratioP2
65477;SDS011;53678;39.642;22.430;2022-08-05T00:00:20;7.45;;;3.35;;
65477;SDS011;53678;39.642;22.430;2022-08-05T00:02:47;7.47;;;3.00;;
65477;SDS011;53678;39.642;22.430;2022-08-05T00:05:13;6.80;;;3.10;;
65477;SDS011;53678;39.642;22.430;2022-08-05T00:07:39;8.15;;;3.53;;
65477;SDS011;53678;39.642;22.430;2022-08-05T00:10:05;8.52;;;3.40;;
65477;SDS011;53678;39.642;22.430;2022-08-05T00:12:31;9.88;;;3.20;;
65477;SDS011;53678;39.642;22.430;2022-08-05T00:14:57;7.75;;;3.67;;
65477;SDS011;53678;39.642;22.430;2022-08-05T00:17:23;7.32;;;3.47;;
65477;SDS011;53678;39.642;22.430;2022-08-05T00:19:49;7.88;;;2.80;;
65477;SDS011;53678;39.642;22.430;2022-08-05T00:22:15;11.15;;;3.30;;
65477;SDS011;53678;39.642;22.430;2022-08-05T00:24:40;8.77;;;3.53;;
65477;SDS011;53678;39.642;22.430;2022-08-05T00:27:06;9.20;;;3.17;;
65477;SDS011;53678;39.642;22.430;2022-08-05T00:29:32;13.00;;;3.45;;
65477;SDS011;53678;39.642;22.430;2022-08-05T00:31:58;10.07;;;3.40;;
65477;SDS011;53678;39.642;22.430;2022-08-05T00:34:24;8.40;;;3.22;;
65477;SDS011;53678;39.642;22.430;2022-08-05T00:36:51;7.78;;;3.05;;
65477;SDS011;53678;39.642;22.430;2022-08-05T00:39:17;7.28;;;3.15;;
65477;SDS011;53678;39.642;22.430;2022-08-05T00:41:46;9.90;;;3.47;;
65477;SDS011;53678;39.642;22.430;2022-08-05T00:44:12;7.35;;;3.55;;
65477;SDS011;53678;39.642;22.430;2022-08-05T00:46:38;11.20;;;3.40;;
65477;SDS011;53678;39.642;22.430;2022-08-05T00:49:04;9.68;;;3.10;;
65477;SDS011;53678;39.642;22.430;2022-08-05T00:51:30;9.65;;;3.15;;
65477;SDS011;53678;39.642;22.430;2022-08-05T00:53:56;6.78;;;2.88;;
65477;SDS011;53678;39.642;22.430;2022-08-05T00:56:22;7.88;;;2.75;;
65477;SDS011;53678;39.642;22.430;2022-08-05T00:58:48;9.23;;;2.90;;
65477;SDS011;53678;39.642;22.430;2022-08-05T01:01:14;7.93;;;3.10;;
65477;SDS011;53678;39.642;22.430;2022-08-05T01:03:40;6.85;;;2.97;;
65477;SDS011;53678;39.642;22.430;2022-08-05T01:06:07;11.43;;;3.30;;
65477;SDS011;53678;39.642;22.430;2022-08-05T01:08:33;7.45;;;2.70;;
65477;SDS011;53678;39.642;22.430;2022-08-05T01:11:02;12.18;;;3.15;;
65477;SDS011;53678;39.642;22.430;2022-08-05T01:18:57;4.65;;;2.80;;
65477;SDS011;53678;39.642;22.430;2022-08-05T01:21:43;5.45;;;2.72;;
65477;SDS011;53678;39.642;22.430;2022-08-05T01:30:08;8.82;;;2.80;;
65477;SDS011;53678;39.642;22.430;2022-08-05T01:32:36;4.68;;;2.63;;
65477;SDS011;53678;39.642;22.430;2022-08-05T01:35:08;3.55;;;2.58;;
65477;SDS011;53678;39.642;22.430;2022-08-05T01:37:44;6.95;;;2.60;;
65477;SDS011;53678;39.642;22.430;2022-08-05T01:40:14;7.45;;;2.72;;
65477;SDS011;53678;39.642;22.430;2022-08-05T01:42:42;10.18;;;3.20;;
65477;SDS011;53678;39.642;22.430;2022-08-05T01:45:10;13.25;;;3.22;;
65477;SDS011;53678;39.642;22.430;2022-08-05T01:47:38;9.43;;;3.05;;
65477;SDS011;53678;39.642;22.430;2022-08-05T01:50:10;5.50;;;3.08;;
65477;SDS011;53678;39.642;22.430;2022-08-05T01:52:40;10.38;;;2.95;;
65477;SDS011;53678;39.642;22.430;2022-08-05T01:55:08;10.77;;;3.28;;
65477;SDS011;53678;39.642;22.430;2022-08-05T01:57:39;14.30;;;3.45;;
65477;SDS011;53678;39.642;22.430;2022-08-05T02:00:07;6.47;;;2.85;;
65477;SDS011;53678;39.642;22.430;2022-08-05T02:02:35;9.30;;;3.00;;
65477;SDS011;53678;39.642;22.430;2022-08-05T02:05:06;9.30;;;2.80;;
65477;SDS011;53678;39.642;22.430;2022-08-05T02:07:35;4.05;;;2.80;;
65477;SDS011;53678;39.642;22.430;2022-08-05T02:10:02;6.75;;;3.25;;
65477;SDS011;53678;39.642;22.430;2022-08-05T02:12:35;5.28;;;3.00;;
65477;SDS011;53678;39.642;22.430;2022-08-05T02:15:52;12.50;;;3.05;;
65477;SDS011;53678;39.642;22.430;2022-08-05T02:20:38;10.98;;;3.20;;
65477;SDS011;53678;39.642;22.430;2022-08-05T02:23:16;6.50;;;2.95;;
65477;SDS011;53678;39.642;22.430;2022-08-05T02:25:47;6.38;;;2.75;;
65477;SDS011;53678;39.642;22.430;2022-08-05T02:28:23;6.60;;;3.28;;
65477;SDS011;53678;39.642;22.430;2022-08-05T02:30:53;5.28;;;2.97;;
65477;SDS011;53678;39.642;22.430;2022-08-05T02:33:22;3.83;;;2.88;;
65477;SDS011;53678;39.642;22.430;2022-08-05T02:35:50;9.23;;;3.70;;
65477;SDS011;53678;39.642;22.430;2022-08-05T02:38:21;8.00;;;3.17;;
65477;SDS011;53678;39.642;22.430;2022-08-05T02:40:48;8.05;;;2.83;;
65477;SDS011;53678;39.642;22.430;2022-08-05T02:43:16;8.23;;;3.10;;
65477;SDS011;53678;39.642;22.430;2022-08-05T02:45:43;12.30;;;4.30;;
65477;SDS011;53678;39.642;22.430;2022-08-05T02:48:11;9.90;;;3.97;;
65477;SDS011;53678;39.642;22.430;2022-08-05T02:50:39;12.35;;;3.80;;
65477;SDS011;53678;39.642;22.430;2022-08-05T02:53:10;8.55;;;3.55;;
65477;SDS011;53678;39.642;22.430;2022-08-05T02:55:37;6.85;;;3.38;;
65477;SDS011;53678;39.642;22.430;2022-08-05T02:58:03;13.40;;;3.25;;
65477;SDS011;53678;39.642;22.430;2022-08-05T03:00:29;11.25;;;3.67;;
65477;SDS011;53678;39.642;22.430;2022-08-05T03:02:56;8.98;;;3.55;;
65477;SDS011;53678;39.642;22.430;2022-08-05T03:05:22;8.95;;;3.90;;
65477;SDS011;53678;39.642;22.430;2022-08-05T03:07:49;9.88;;;3.50;;
65477;SDS011;53678;39.642;22.430;2022-08-05T03:10:15;10.00;;;3.42;;
65477;SDS011;53678;39.642;22.430;2022-08-05T03:12:41;19.88;;;4.63;;
65477;SDS011;53678;39.642;22.430;2022-08-05T03:15:08;10.13;;;3.90;;
65477;SDS011;53678;39.642;22.430;2022-08-05T03:17:35;13.05;;;3.67;;
65477;SDS011;53678;39.642;22.430;2022-08-05T03:20:02;11.43;;;3.92;;
65477;SDS011;53678;39.642;22.430;2022-08-05T03:22:29;5.13;;;3.22;;
65477;SDS011;53678;39.642;22.430;2022-08-05T03:24:55;4.93;;;3.15;;
65477;SDS011;53678;39.642;22.430;2022-08-05T03:27:22;6.00;;;2.83;;
65477;SDS011;53678;39.642;22.430;2022-08-05T03:29:48;7.53;;;2.70;;
65477;SDS011;53678;39.642;22.430;2022-08-05T03:32:15;6.80;;;2.80;;
65477;SDS011;53678;39.642;22.430;2022-08-05T03:34:43;7.20;;;3.10;;
65477;SDS011;53678;39.642;22.430;2022-08-05T03:37:10;10.93;;;3.40;;
65477;SDS011;53678;39.642;22.430;2022-08-05T03:39:36;7.65;;;2.90;;
65477;SDS011;53678;39.642;22.430;2022-08-05T03:42:03;9.02;;;3.08;;
65477;SDS011;53678;39.642;22.430;2022-08-05T03:44:29;12.10;;;3.13;;
65477;SDS011;53678;39.642;22.430;2022-08-05T03:46:55;8.43;;;3.03;;
65477;SDS011;53678;39.642;22.430;2022-08-05T03:49:21;10.90;;;3.28;;
65477;SDS011;53678;39.642;22.430;2022-08-05T03:51:54;9.60;;;3.67;;
65477;SDS011;53678;39.642;22.430;2022-08-05T03:54:30;6.43;;;2.80;;
65477;SDS011;53678;39.642;22.430;2022-08-05T03:57:01;8.98;;;2.90;;
65477;SDS011;53678;39.642;22.430;2022-08-05T03:59:34;9.07;;;2.72;;
65477;SDS011;53678;39.642;22.430;2022-08-05T04:02:06;10.73;;;3.17;;
65477;SDS011;53678;39.642;22.430;2022-08-05T04:04:35;5.88;;;3.30;;
65477;SDS011;53678;39.642;22.430;2022-08-05T04:07:02;6.65;;;3.00;;
65477;SDS011;53678;39.642;22.430;2022-08-05T04:09:30;6.07;;;3.47;;
65477;SDS011;53678;39.642;22.430;2022-08-05T04:11:57;12.98;;;2.88;;
65477;SDS011;53678;39.642;22.430;2022-08-05T04:14:24;14.40;;;3.20;;
65477;SDS011;53678;39.642;22.430;2022-08-05T04:16:51;6.55;;;2.70;;
65477;SDS011;53678;39.642;22.430;2022-08-05T04:19:17;7.65;;;3.28;;
65477;SDS011;53678;39.642;22.430;2022-08-05T04:21:43;10.93;;;3.03;;
65477;SDS011;53678;39.642;22.430;2022-08-05T04:24:09;9.15;;;3.28;;
65477;SDS011;53678;39.642;22.430;2022-08-05T04:26:36;11.20;;;3.22;;
65477;SDS011;53678;39.642;22.430;2022-08-05T04:29:02;11.27;;;3.30;;
65477;SDS011;53678;39.642;22.430;2022-08-05T04:31:28;8.32;;;3.35;;
65477;SDS011;53678;39.642;22.430;2022-08-05T04:33:54;11.68;;;3.50;;
65477;SDS011;53678;39.642;22.430;2022-08-05T04:36:20;14.52;;;3.58;;
65477;SDS011;53678;39.642;22.430;2022-08-05T04:38:46;11.95;;;3.05;;
65477;SDS011;53678;39.642;22.430;2022-08-05T04:41:12;15.00;;;3.67;;
65477;SDS011;53678;39.642;22.430;2022-08-05T04:43:38;12.45;;;3.42;;
65477;SDS011;53678;39.642;22.430;2022-08-05T04:46:04;7.97;;;2.95;;
65477;SDS011;53678;39.642;22.430;2022-08-05T04:48:30;9.85;;;3.33;;
65477;SDS011;53678;39.642;22.430;2022-08-05T04:50:56;8.93;;;3.58;;
65477;SDS011;53678;39.642;22.430;2022-08-05T04:53:22;15.30;;;3.10;;
65477;SDS011;53678;39.642;22.430;2022-08-05T04:55:48;12.15;;;3.60;;
65477;SDS011;53678;39.642;22.430;2022-08-05T04:58:14;8.88;;;3.13;;
65477;SDS011;53678;39.642;22.430;2022-08-05T05:00:41;12.98;;;3.58;;
65477;SDS011;53678;39.642;22.430;2022-08-05T05:03:08;13.02;;;3.17;;
65477;SDS011;53678;39.642;22.430;2022-08-05T05:05:35;13.35;;;3.80;;
65477;SDS011;53678;39.642;22.430;2022-08-05T05:08:03;14.40;;;3.17;;
65477;SDS011;53678;39.642;22.430;2022-08-05T05:10:32;9.43;;;3.10;;
65477;SDS011;53678;39.642;22.430;2022-08-05T05:13:09;10.75;;;3.55;;
65477;SDS011;53678;39.642;22.430;2022-08-05T05:15:41;10.88;;;3.60;;
65477;SDS011;53678;39.642;22.430;2022-08-05T05:18:08;11.73;;;3.30;;
65477;SDS011;53678;39.642;22.430;2022-08-05T05:20:34;7.07;;;2.97;;
65477;SDS011;53678;39.642;22.430;2022-08-05T05:23:00;8.35;;;3.47;;
65477;SDS011;53678;39.642;22.430;2022-08-05T05:25:30;12.68;;;3.65;;
65477;SDS011;53678;39.642;22.430;2022-08-05T05:27:56;8.85;;;3.85;;
65477;SDS011;53678;39.642;22.430;2022-08-05T05:30:23;12.13;;;3.60;;
65477;SDS011;53678;39.642;22.430;2022-08-05T05:32:49;9.98;;;3.65;;
65477;SDS011;53678;39.642;22.430;2022-08-05T05:35:15;14.45;;;4.20;;
65477;SDS011;53678;39.642;22.430;2022-08-05T05:37:55;15.60;;;4.20;;
65477;SDS011;53678;39.642;22.430;2022-08-05T05:40:23;18.90;;;4.55;;
65477;SDS011;53678;39.642;22.430;2022-08-05T05:42:49;13.68;;;4.03;;
65477;SDS011;53678;39.642;22.430;2022-08-05T05:45:15;15.43;;;3.97;;
65477;SDS011;53678;39.642;22.430;2022-08-05T05:47:42;13.80;;;3.92;;
65477;SDS011;53678;39.642;22.430;2022-08-05T05:50:09;12.80;;;4.28;;
65477;SDS011;53678;39.642;22.430;2022-08-05T05:52:37;18.33;;;4.07;;
65477;SDS011;53678;39.642;22.430;2022-08-05T05:55:05;14.82;;;4.05;;
65477;SDS011;53678;39.642;22.430;2022-08-05T05:57:38;16.88;;;4.47;;
65477;SDS011;53678;39.642;22.430;2022-08-05T06:00:08;18.38;;;4.57;;
65477;SDS011;53678;39.642;22.430;2022-08-05T06:02:39;14.10;;;3.92;;
65477;SDS011;53678;39.642;22.430;2022-08-05T06:05:06;11.13;;;3.80;;
65477;SDS011;53678;39.642;22.430;2022-08-05T06:07:34;11.90;;;3.22;;
65477;SDS011;53678;39.642;22.430;2022-08-05T06:10:01;10.63;;;3.67;;
65477;SDS011;53678;39.642;22.430;2022-08-05T06:12:27;15.05;;;3.25;;
65477;SDS011;53678;39.642;22.430;2022-08-05T06:14:53;12.38;;;3.70;;
65477;SDS011;53678;39.642;22.430;2022-08-05T06:17:19;10.95;;;3.67;;
65477;SDS011;53678;39.642;22.430;2022-08-05T06:19:45;8.35;;;3.22;;
65477;SDS011;53678;39.642;22.430;2022-08-05T06:22:11;10.27;;;3.92;;
65477;SDS011;53678;39.642;22.430;2022-08-05T06:24:40;11.35;;;3.70;;
65477;SDS011;53678;39.642;22.430;2022-08-05T06:27:06;10.80;;;3.53;;
65477;SDS011;53678;39.642;22.430;2022-08-05T06:29:32;7.20;;;3.42;;
65477;SDS011;53678;39.642;22.430;2022-08-05T06:32:00;10.00;;;3.42;;
65477;SDS011;53678;39.642;22.430;2022-08-05T06:34:26;10.50;;;3.72;;
65477;SDS011;53678;39.642;22.430;2022-08-05T06:36:52;7.28;;;3.17;;
65477;SDS011;53678;39.642;22.430;2022-08-05T06:39:18;8.40;;;3.10;;
65477;SDS011;53678;39.642;22.430;2022-08-05T06:41:44;5.32;;;3.30;;
65477;SDS011;53678;39.642;22.430;2022-08-05T06:44:11;7.00;;;3.38;;
65477;SDS011;53678;39.642;22.430;2022-08-05T06:46:37;12.85;;;3.60;;
65477;SDS011;53678;39.642;22.430;2022-08-05T06:49:03;4.95;;;2.80;;
65477;SDS011;53678;39.642;22.430;2022-08-05T06:51:29;8.15;;;3.00;;
65477;SDS011;53678;39.642;22.430;2022-08-05T06:53:55;6.60;;;3.03;;
65477;SDS011;53678;39.642;22.430;2022-08-05T06:56:23;5.10;;;2.78;;
65477;SDS011;53678;39.642;22.430;2022-08-05T06:58:49;5.32;;;3.45;;
65477;SDS011;53678;39.642;22.430;2022-08-05T07:01:15;7.45;;;3.05;;
65477;SDS011;53678;39.642;22.430;2022-08-05T07:03:40;13.15;;;3.83;;
65477;SDS011;53678;39.642;22.430;2022-08-05T07:06:06;7.15;;;3.10;;
65477;SDS011;53678;39.642;22.430;2022-08-05T07:08:32;4.28;;;2.65;;
65477;SDS011;53678;39.642;22.430;2022-08-05T07:10:58;10.10;;;3.47;;
65477;SDS011;53678;39.642;22.430;2022-08-05T07:13:24;8.93;;;2.80;;
65477;SDS011;53678;39.642;22.430;2022-08-05T07:16:09;6.45;;;2.85;;
65477;SDS011;53678;39.642;22.430;2022-08-05T07:18:53;9.63;;;3.63;;
65477;SDS011;53678;39.642;22.430;2022-08-05T07:21:19;7.10;;;3.20;;
65477;SDS011;53678;39.642;22.430;2022-08-05T07:23:45;8.90;;;3.20;;
65477;SDS011;53678;39.642;22.430;2022-08-05T07:26:11;6.13;;;2.67;;
65477;SDS011;53678;39.642;22.430;2022-08-05T07:28:36;7.70;;;2.70;;
65477;SDS011;53678;39.642;22.430;2022-08-05T07:31:02;8.50;;;2.90;;
65477;SDS011;53678;39.642;22.430;2022-08-05T07:33:28;4.60;;;2.65;;
65477;SDS011;53678;39.642;22.430;2022-08-05T07:35:55;6.63;;;2.60;;
65477;SDS011;53678;39.642;22.430;2022-08-05T07:38:20;5.75;;;2.45;;
65477;SDS011;53678;39.642;22.430;2022-08-05T07:40:46;6.35;;;2.72;;
65477;SDS011;53678;39.642;22.430;2022-08-05T07:43:12;4.35;;;2.58;;
65477;SDS011;53678;39.642;22.430;2022-08-05T07:45:39;5.90;;;2.47;;
65477;SDS011;53678;39.642;22.430;2022-08-05T07:48:07;7.78;;;2.85;;
65477;SDS011;53678;39.642;22.430;2022-08-05T07:50:34;3.97;;;2.42;;
65477;SDS011;53678;39.642;22.430;2022-08-05T07:53:00;6.05;;;2.72;;
65477;SDS011;53678;39.642;22.430;2022-08-05T07:55:26;8.90;;;4.75;;
65477;SDS011;53678;39.642;22.430;2022-08-05T07:57:52;6.00;;;2.67;;
65477;SDS011;53678;39.642;22.430;2022-08-05T08:00:18;6.55;;;3.20;;
65477;SDS011;53678;39.642;22.430;2022-08-05T08:02:44;4.57;;;2.60;;
65477;SDS011;53678;39.642;22.430;2022-08-05T08:05:10;10.70;;;2.70;;
65477;SDS011;53678;39.642;22.430;2022-08-05T08:07:36;5.55;;;3.00;;
65477;SDS011;53678;39.642;22.430;2022-08-05T08:10:02;10.00;;;2.90;;
65477;SDS011;53678;39.642;22.430;2022-08-05T08:12:29;7.38;;;2.85;;
65477;SDS011;53678;39.642;22.430;2022-08-05T08:14:55;6.90;;;2.75;;
65477;SDS011;53678;39.642;22.430;2022-08-05T08:17:21;8.13;;;2.70;;
65477;SDS011;53678;39.642;22.430;2022-08-05T08:19:47;4.82;;;2.65;;
65477;SDS011;53678;39.642;22.430;2022-08-05T08:22:13;6.75;;;3.10;;
65477;SDS011;53678;39.642;22.430;2022-08-05T08:24:39;7.28;;;2.83;;
65477;SDS011;53678;39.642;22.430;2022-08-05T08:27:05;3.65;;;2.35;;
65477;SDS011;53678;39.642;22.430;2022-08-05T08:29:32;4.55;;;2.63;;
65477;SDS011;53678;39.642;22.430;2022-08-05T08:31:58;4.60;;;2.38;;
65477;SDS011;53678;39.642;22.430;2022-08-05T08:34:25;7.78;;;2.95;;
65477;SDS011;53678;39.642;22.430;2022-08-05T08:36:51;4.25;;;2.55;;
65477;SDS011;53678;39.642;22.430;2022-08-05T08:39:17;8.20;;;2.80;;
65477;SDS011;53678;39.642;22.430;2022-08-05T08:41:46;7.68;;;2.40;;
65477;SDS011;53678;39.642;22.430;2022-08-05T08:44:22;6.60;;;2.75;;
65477;SDS011;53678;39.642;22.430;2022-08-05T08:46:49;5.53;;;2.80;;
65477;SDS011;53678;39.642;22.430;2022-08-05T08:49:17;2.95;;;2.05;;
65477;SDS011;53678;39.642;22.430;2022-08-05T08:51:49;4.93;;;2.40;;
65477;SDS011;53678;39.642;22.430;2022-08-05T08:54:35;5.78;;;2.45;;
65477;SDS011;53678;39.642;22.430;2022-08-05T08:57:01;8.40;;;2.50;;
65477;SDS011;53678;39.642;22.430;2022-08-05T08:59:30;6.40;;;2.60;;
65477;SDS011;53678;39.642;22.430;2022-08-05T09:01:56;3.20;;;2.60;;
65477;SDS011;53678;39.642;22.430;2022-08-05T09:04:23;6.10;;;2.72;;
65477;SDS011;53678;39.642;22.430;2022-08-05T09:06:49;3.35;;;2.30;;
65477;SDS011;53678;39.642;22.430;2022-08-05T09:09:15;7.80;;;2.78;;
65477;SDS011;53678;39.642;22.430;2022-08-05T09:11:41;5.32;;;2.70;;
65477;SDS011;53678;39.642;22.430;2022-08-05T09:14:07;7.28;;;2.90;;
65477;SDS011;53678;39.642;22.430;2022-08-05T09:16:33;5.10;;;2.70;;
65477;SDS011;53678;39.642;22.430;2022-08-05T09:18:59;4.28;;;2.40;;
65477;SDS011;53678;39.642;22.430;2022-08-05T09:21:25;7.07;;;2.80;;
65477;SDS011;53678;39.642;22.430;2022-08-05T09:24:05;6.68;;;2.80;;
65477;SDS011;53678;39.642;22.430;2022-08-05T09:26:37;6.88;;;3.90;;
65477;SDS011;53678;39.642;22.430;2022-08-05T09:29:07;4.13;;;2.33;;
65477;SDS011;53678;39.642;22.430;2022-08-05T09:31:33;4.85;;;2.92;;
65477;SDS011;53678;39.642;22.430;2022-08-05T09:34:03;4.88;;;2.80;;
65477;SDS011;53678;39.642;22.430;2022-08-05T09:36:40;6.20;;;2.75;;
65477;SDS011;53678;39.642;22.430;2022-08-05T09:39:07;4.53;;;2.55;;
65477;SDS011;53678;39.642;22.430;2022-08-05T09:41:53;7.15;;;3.10;;
65477;SDS011;53678;39.642;22.430;2022-08-05T09:44:34;4.57;;;2.88;;
65477;SDS011;53678;39.642;22.430;2022-08-05T09:49:51;3.47;;;2.78;;
65477;SDS011;53678;39.642;22.430;2022-08-05T09:52:25;6.28;;;2.85;;
65477;SDS011;53678;39.642;22.430;2022-08-05T09:54:57;4.95;;;2.60;;
65477;SDS011;53678;39.642;22.430;2022-08-05T09:57:29;4.75;;;2.40;;
65477;SDS011;53678;39.642;22.430;2022-08-05T10:00:09;6.93;;;3.10;;
65477;SDS011;53678;39.642;22.430;2022-08-05T10:02:39;5.78;;;2.45;;
65477;SDS011;53678;39.642;22.430;2022-08-05T10:05:09;4.85;;;2.50;;
65477;SDS011;53678;39.642;22.430;2022-08-05T10:11:04;5.25;;;2.83;;
65477;SDS011;53678;39.642;22.430;2022-08-05T10:13:10;5.05;;;2.60;;
65477;SDS011;53678;39.642;22.430;2022-08-05T10:15:50;3.97;;;2.60;;
65477;SDS011;53678;39.642;22.430;2022-08-05T10:18:19;4.63;;;2.75;;
65477;SDS011;53678;39.642;22.430;2022-08-05T10:23:15;5.05;;;3.13;;
65477;SDS011;53678;39.642;22.430;2022-08-05T10:25:49;4.25;;;2.60;;
65477;SDS011;53678;39.642;22.430;2022-08-05T10:28:16;4.13;;;2.75;;
65477;SDS011;53678;39.642;22.430;2022-08-05T10:30:42;5.10;;;2.75;;
65477;SDS011;53678;39.642;22.430;2022-08-05T10:33:09;5.70;;;2.83;;
65477;SDS011;53678;39.642;22.430;2022-08-05T10:35:35;6.18;;;3.10;;
65477;SDS011;53678;39.642;22.430;2022-08-05T10:38:02;4.20;;;2.53;;
65477;SDS011;53678;39.642;22.430;2022-08-05T10:40:33;4.40;;;2.53;;
65477;SDS011;53678;39.642;22.430;2022-08-05T10:45:56;7.03;;;2.80;;
65477;SDS011;53678;39.642;22.430;2022-08-05T10:51:02;4.18;;;2.47;;
65477;SDS011;53678;39.642;22.430;2022-08-05T10:56:29;5.50;;;3.00;;
65477;SDS011;53678;39.642;22.430;2022-08-05T10:59:04;6.10;;;3.03;;
65477;SDS011;53678;39.642;22.430;2022-08-05T11:04:08;11.30;;;3.28;;
65477;SDS011;53678;39.642;22.430;2022-08-05T11:07:02;5.20;;;2.45;;
65477;SDS011;53678;39.642;22.430;2022-08-05T11:09:35;5.13;;;2.47;;
65477;SDS011;53678;39.642;22.430;2022-08-05T11:12:03;6.78;;;2.70;;
65477;SDS011;53678;39.642;22.430;2022-08-05T11:14:32;4.40;;;2.58;;
65477;SDS011;53678;39.642;22.430;2022-08-05T11:19:53;5.85;;;2.35;;
65477;SDS011;53678;39.642;22.430;2022-08-05T11:22:39;5.07;;;2.47;;
65477;SDS011;53678;39.642;22.430;2022-08-05T11:25:26;8.18;;;2.53;;
65477;SDS011;53678;39.642;22.430;2022-08-05T11:27:57;4.35;;;2.55;;
65477;SDS011;53678;39.642;22.430;2022-08-05T11:33:24;4.00;;;2.65;;
65477;SDS011;53678;39.642;22.430;2022-08-05T11:35:55;2.95;;;2.28;;
65477;SDS011;53678;39.642;22.430;2022-08-05T11:41:07;5.18;;;2.50;;
65477;SDS011;53678;39.642;22.430;2022-08-05T11:46:09;3.25;;;2.30;;
65477;SDS011;53678;39.642;22.430;2022-08-05T11:48:40;2.92;;;2.63;;
65477;SDS011;53678;39.642;22.430;2022-08-05T11:51:06;3.17;;;2.60;;
65477;SDS011;53678;39.642;22.430;2022-08-05T11:53:32;3.95;;;2.58;;
65477;SDS011;53678;39.642;22.430;2022-08-05T11:56:00;3.55;;;2.50;;
65477;SDS011;53678;39.642;22.430;2022-08-05T11:58:27;2.92;;;2.42;;
65477;SDS011;53678;39.642;22.430;2022-08-05T12:01:02;3.58;;;2.55;;
65477;SDS011;53678;39.642;22.430;2022-08-05T12:06:16;5.80;;;2.90;;
65477;SDS011;53678;39.642;22.430;2022-08-05T12:11:15;4.68;;;2.20;;
65477;SDS011;53678;39.642;22.430;2022-08-05T12:16:32;4.45;;;2.30;;
65477;SDS011;53678;39.642;22.430;2022-08-05T12:18:59;3.38;;;2.40;;
65477;SDS011;53678;39.642;22.430;2022-08-05T12:24:15;4.75;;;2.30;;
65477;SDS011;53678;39.642;22.430;2022-08-05T12:26:44;3.28;;;2.17;;
65477;SDS011;53678;39.642;22.430;2022-08-05T12:29:14;3.55;;;2.00;;
65477;SDS011;53678;39.642;22.430;2022-08-05T12:31:48;2.55;;;2.20;;
65477;SDS011;53678;39.642;22.430;2022-08-05T12:34:31;3.25;;;2.10;;
65477;SDS011;53678;39.642;22.430;2022-08-05T12:37:00;9.98;;;2.50;;
65477;SDS011;53678;39.642;22.430;2022-08-05T12:39:36;3.33;;;2.47;;
65477;SDS011;53678;39.642;22.430;2022-08-05T12:42:07;4.03;;;2.25;;
65477;SDS011;53678;39.642;22.430;2022-08-05T12:44:35;4.60;;;2.23;;
65477;SDS011;53678;39.642;22.430;2022-08-05T12:47:02;3.03;;;2.50;;
65477;SDS011;53678;39.642;22.430;2022-08-05T12:49:41;3.42;;;2.10;;
65477;SDS011;53678;39.642;22.430;2022-08-05T12:52:16;3.10;;;2.30;;
65477;SDS011;53678;39.642;22.430;2022-08-05T12:54:44;2.78;;;1.80;;
65477;SDS011;53678;39.642;22.430;2022-08-05T12:57:15;2.95;;;2.10;;
65477;SDS011;53678;39.642;22.430;2022-08-05T13:02:10;2.40;;;2.08;;
65477;SDS011;53678;39.642;22.430;2022-08-05T13:04:38;6.20;;;2.38;;
65477;SDS011;53678;39.642;22.430;2022-08-05T13:07:07;4.45;;;2.25;;
65477;SDS011;53678;39.642;22.430;2022-08-05T13:09:40;2.88;;;2.20;;
65477;SDS011;53678;39.642;22.430;2022-08-05T13:12:12;3.13;;;2.10;;
65477;SDS011;53678;39.642;22.430;2022-08-05T13:14:41;2.40;;;2.10;;
65477;SDS011;53678;39.642;22.430;2022-08-05T13:17:30;3.30;;;2.33;;
65477;SDS011;53678;39.642;22.430;2022-08-05T13:20:03;3.38;;;2.20;;
65477;SDS011;53678;39.642;22.430;2022-08-05T13:22:33;3.78;;;2.00;;
65477;SDS011;53678;39.642;22.430;2022-08-05T13:25:02;2.75;;;2.08;;
65477;SDS011;53678;39.642;22.430;2022-08-05T13:27:31;2.40;;;2.00;;
65477;SDS011;53678;39.642;22.430;2022-08-05T13:30:00;4.20;;;2.50;;
65477;SDS011;53678;39.642;22.430;2022-08-05T13:32:27;6.55;;;2.20;;
65477;SDS011;53678;39.642;22.430;2022-08-05T13:34:53;4.30;;;2.10;;
65477;SDS011;53678;39.642;22.430;2022-08-05T13:37:20;3.00;;;2.30;;
65477;SDS011;53678;39.642;22.430;2022-08-05T13:39:50;4.45;;;2.25;;
65477;SDS011;53678;39.642;22.430;2022-08-05T13:42:19;4.45;;;2.08;;
65477;SDS011;53678;39.642;22.430;2022-08-05T13:44:49;4.05;;;2.40;;
65477;SDS011;53678;39.642;22.430;2022-08-05T13:47:16;3.15;;;2.13;;
65477;SDS011;53678;39.642;22.430;2022-08-05T13:49:42;5.32;;;2.45;;
65477;SDS011;53678;39.642;22.430;2022-08-05T13:52:12;4.22;;;2.15;;
65477;SDS011;53678;39.642;22.430;2022-08-05T13:54:42;2.53;;;2.22;;
65477;SDS011;53678;39.642;22.430;2022-08-05T13:57:09;4.00;;;2.40;;
65477;SDS011;53678;39.642;22.430;2022-08-05T13:59:36;4.47;;;2.20;;
65477;SDS011;53678;39.642;22.430;2022-08-05T14:02:03;5.00;;;2.30;;
65477;SDS011;53678;39.642;22.430;2022-08-05T14:04:31;3.72;;;2.20;;
65477;SDS011;53678;39.642;22.430;2022-08-05T14:07:27;3.63;;;2.00;;
65477;SDS011;53678;39.642;22.430;2022-08-05T14:09:54;6.18;;;2.38;;
65477;SDS011;53678;39.642;22.430;2022-08-05T14:12:20;6.10;;;2.30;;
65477;SDS011;53678;39.642;22.430;2022-08-05T14:14:47;3.00;;;2.10;;
65477;SDS011;53678;39.642;22.430;2022-08-05T14:17:13;4.70;;;2.05;;
65477;SDS011;53678;39.642;22.430;2022-08-05T14:19:42;3.40;;;2.30;;
65477;SDS011;53678;39.642;22.430;2022-08-05T14:22:09;3.53;;;2.30;;
65477;SDS011;53678;39.642;22.430;2022-08-05T14:24:35;5.95;;;2.25;;
65477;SDS011;53678;39.642;22.430;2022-08-05T14:27:02;2.13;;;1.92;;
65477;SDS011;53678;39.642;22.430;2022-08-05T14:29:28;3.42;;;2.20;;
65477;SDS011;53678;39.642;22.430;2022-08-05T14:31:54;3.15;;;2.25;;
65477;SDS011;53678;39.642;22.430;2022-08-05T14:34:20;3.90;;;2.17;;
65477;SDS011;53678;39.642;22.430;2022-08-05T14:36:46;3.03;;;2.20;;
65477;SDS011;53678;39.642;22.430;2022-08-05T14:39:12;3.95;;;2.05;;
65477;SDS011;53678;39.642;22.430;2022-08-05T14:41:38;4.18;;;2.30;;
65477;SDS011;53678;39.642;22.430;2022-08-05T14:44:04;3.28;;;2.00;;
65477;SDS011;53678;39.642;22.430;2022-08-05T14:46:30;3.80;;;2.10;;
65477;SDS011;53678;39.642;22.430;2022-08-05T14:48:57;5.65;;;2.30;;
65477;SDS011;53678;39.642;22.430;2022-08-05T14:51:24;3.80;;;2.10;;
65477;SDS011;53678;39.642;22.430;2022-08-05T14:53:50;3.20;;;2.25;;
65477;SDS011;53678;39.642;22.430;2022-08-05T14:56:16;2.92;;;1.92;;
65477;SDS011;53678;39.642;22.430;2022-08-05T14:58:42;3.92;;;2.30;;
65477;SDS011;53678;39.642;22.430;2022-08-05T15:01:08;5.07;;;2.22;;
65477;SDS011;53678;39.642;22.430;2022-08-05T15:03:34;3.25;;;2.20;;
65477;SDS011;53678;39.642;22.430;2022-08-05T15:06:01;3.90;;;2.30;;
65477;SDS011;53678;39.642;22.430;2022-08-05T15:08:28;4.15;;;2.90;;
65477;SDS011;53678;39.642;22.430;2022-08-05T15:10:54;2.90;;;2.17;;
65477;SDS011;53678;39.642;22.430;2022-08-05T15:13:21;3.65;;;2.10;;
65477;SDS011;53678;39.642;22.430;2022-08-05T15:15:47;3.78;;;2.42;;
65477;SDS011;53678;39.642;22.430;2022-08-05T15:18:13;6.65;;;2.33;;
65477;SDS011;53678;39.642;22.430;2022-08-05T15:20:39;4.22;;;2.38;;
65477;SDS011;53678;39.642;22.430;2022-08-05T15:23:06;3.53;;;2.38;;
65477;SDS011;53678;39.642;22.430;2022-08-05T15:25:34;6.32;;;2.28;;
65477;SDS011;53678;39.642;22.430;2022-08-05T15:28:01;3.40;;;2.35;;
65477;SDS011;53678;39.642;22.430;2022-08-05T15:30:27;2.95;;;2.20;;
65477;SDS011;53678;39.642;22.430;2022-08-05T15:32:56;4.78;;;2.17;;
65477;SDS011;53678;39.642;22.430;2022-08-05T15:35:23;5.40;;;2.35;;